Time;durP1;ratioP1;P1;durP2;ratioP2;P2;SDS_P1;SDS_P2;PMS_P1;PMS_P2;Temp;Humidity;BMP_temperature;BMP_pressure;BME280_temperature;BME280_humidity;BME280_pressure;Samples;Min_cycle;Max_cycle;Signal;HPM_P1;HPM_P2
2023/07/05 00:00:54;;;;;;;9.88;3.35;;;14.80;99.90;;;;;;5110880;28;20040;-89
2023/07/05 00:03:21;;;;;;;7.78;2.97;;;14.80;99.90;;;;;;5077663;28;20467;-88
2023/07/05 00:05:48;;;;;;;9.48;3.67;;;14.80;99.90;;;;;;5093604;28;20104;-89
2023/07/05 00:08:15;;;;;;;9.02;3.85;;;14.80;99.90;;;;;;5094457;28;20044;-89
2023/07/05 00:10:41;;;;;;;8.18;3.75;;;14.80;99.90;;;;;;5097967;28;20092;-88
2023/07/05 00:13:08;;;;;;;8.50;3.63;;;14.80;99.90;;;;;;5081958;28;20036;-89
2023/07/05 00:15:35;;;;;;;11.75;3.40;;;14.80;99.90;;;;;;5114254;28;20047;-89
2023/07/05 00:18:03;;;;;;;7.80;3.83;;;14.80;99.90;;;;;;5080924;28;20044;-88
2023/07/05 00:20:30;;;;;;;8.95;3.53;;;14.80;99.90;;;;;;5097982;28;20040;-88
2023/07/05 00:22:57;;;;;;;8.63;3.78;;;14.80;99.90;;;;;;5081129;28;20046;-88
2023/07/05 00:25:25;;;;;;;12.98;4.13;;;14.80;99.90;;;;;;5097612;28;20036;-88
2023/07/05 00:27:52;;;;;;;8.60;3.53;;;14.80;99.90;;;;;;5113811;28;20059;-88
2023/07/05 00:30:19;;;;;;;10.75;3.80;;;14.80;99.90;;;;;;5093989;28;20040;-88
2023/07/05 00:32:45;;;;;;;8.95;3.75;;;14.80;99.90;;;;;;5077434;28;20074;-87
2023/07/05 00:35:12;;;;;;;6.63;3.95;;;14.80;99.90;;;;;;5061142;28;20076;-89
2023/07/05 00:37:39;;;;;;;8.80;3.67;;;14.80;99.90;;;;;;5077013;28;20127;-88
2023/07/05 00:40:06;;;;;;;11.10;4.03;;;14.80;99.90;;;;;;5093742;28;20459;-88
2023/07/05 00:42:36;;;;;;;8.32;4.43;;;14.80;99.90;;;;;;5076527;28;20036;-87
2023/07/05 00:45:09;;;;;;;10.20;3.83;;;14.80;99.90;;;;;;5076858;28;20503;-88
2023/07/05 00:47:37;;;;;;;11.30;4.45;;;14.80;99.90;;;;;;5092843;28;20042;-88
2023/07/05 00:50:19;;;;;;;12.35;4.22;;;14.80;99.90;;;;;;5092883;28;20044;-88
2023/07/05 00:52:46;;;;;;;6.25;3.88;;;14.80;99.90;;;;;;5076568;28;20079;-88
2023/07/05 00:55:14;;;;;;;9.90;3.78;;;14.80;99.90;;;;;;5060285;28;20036;-88
2023/07/05 00:57:41;;;;;;;12.02;4.18;;;14.70;99.90;;;;;;5076120;28;20459;-88
2023/07/05 01:00:14;;;;;;;9.52;4.15;;;14.70;99.90;;;;;;5059991;28;20041;-88
2023/07/05 01:02:45;;;;;;;8.95;3.95;;;14.70;99.90;;;;;;5076198;28;20052;-88
2023/07/05 01:05:12;;;;;;;7.93;4.50;;;14.80;99.90;;;;;;5076929;28;20051;-87
2023/07/05 01:07:39;;;;;;;9.00;4.90;;;14.80;99.90;;;;;;5059262;28;20496;-88
2023/07/05 01:10:15;;;;;;;8.13;4.72;;;14.80;99.90;;;;;;5076335;28;20040;-88
2023/07/05 01:13:08;;;;;;;10.18;4.80;;;14.70;99.90;;;;;;5075807;28;20077;-87
2023/07/05 01:15:43;;;;;;;9.85;4.70;;;14.80;99.90;;;;;;5075857;28;20048;-88
2023/07/05 01:18:22;;;;;;;;;;;14.80;99.90;;;;;;5076966;28;20036;-87
2023/07/05 01:21:02;;;;;;;10.73;4.40;;;14.70;99.90;;;;;;5074544;28;19923;-87
2023/07/05 01:23:54;;;;;;;12.73;4.70;;;14.70;99.90;;;;;;5075656;28;20043;-87
2023/07/05 01:26:56;;;;;;;11.15;5.05;;;14.70;99.90;;;;;;5079200;28;20060;-86
2023/07/05 01:29:26;;;;;;;12.90;5.07;;;14.70;99.90;;;;;;5112424;28;20389;-87
2023/07/05 01:31:56;;;;;;;12.73;5.35;;;14.70;99.90;;;;;;5112454;28;20035;-87
2023/07/05 01:34:29;;;;;;;10.30;4.80;;;14.70;99.90;;;;;;5112824;28;20032;-87
2023/07/05 01:36:56;;;;;;;14.63;5.40;;;14.80;99.90;;;;;;5112238;28;20230;-87
2023/07/05 01:39:23;;;;;;;13.25;5.18;;;14.70;99.90;;;;;;5129376;28;20044;-87
2023/07/05 01:41:52;;;;;;;11.70;5.97;;;14.70;99.90;;;;;;5095543;28;20043;-87
2023/07/05 01:44:19;;;;;;;12.52;6.07;;;14.80;99.90;;;;;;5111950;28;20048;-87
2023/07/05 01:47:01;;;;;;;11.70;4.90;;;14.70;99.90;;;;;;5111816;28;20044;-86
2023/07/05 01:50:08;;;;;;;9.63;5.57;;;14.80;99.90;;;;;;5111916;28;20193;-87
2023/07/05 01:52:38;;;;;;;9.45;5.53;;;14.80;99.90;;;;;;5108139;28;20091;-87
2023/07/05 01:55:17;;;;;;;11.90;6.05;;;14.70;99.90;;;;;;5091485;28;20040;-87
2023/07/05 01:58:03;;;;;;;13.75;5.80;;;14.70;99.90;;;;;;5090819;28;20106;-86
2023/07/05 02:00:30;;;;;;;14.20;6.07;;;14.70;99.90;;;;;;5090957;28;20036;-86
2023/07/05 02:03:01;;;;;;;10.32;5.97;;;14.80;99.90;;;;;;5074150;28;20040;-87
2023/07/05 02:05:31;;;;;;;10.27;5.55;;;14.70;99.90;;;;;;5092552;28;20158;-88
2023/07/05 02:08:01;;;;;;;17.05;6.28;;;14.70;99.90;;;;;;5092641;28;20044;-89
2023/07/05 02:10:28;;;;;;;10.50;5.85;;;14.70;99.90;;;;;;5076099;28;20049;-88
2023/07/05 02:12:57;;;;;;;15.43;6.40;;;14.70;99.90;;;;;;5074910;28;20171;-88
2023/07/05 02:15:24;;;;;;;17.70;6.43;;;14.70;99.90;;;;;;5092152;28;20090;-89
2023/07/05 02:17:56;;;;;;;14.52;6.90;;;14.70;99.90;;;;;;5092252;28;20102;-89
2023/07/05 02:20:23;;;;;;;14.93;6.38;;;14.70;99.90;;;;;;5091860;28;20188;-90
2023/07/05 02:22:50;;;;;;;11.98;6.47;;;14.60;99.90;;;;;;5091983;28;20057;-90
2023/07/05 02:25:17;;;;;;;14.73;6.68;;;14.70;99.90;;;;;;5058998;28;20048;-89
2023/07/05 02:27:43;;;;;;;10.77;6.25;;;14.70;99.90;;;;;;5075205;28;20488;-90
2023/07/05 02:30:13;;;;;;;14.13;7.13;;;14.60;99.90;;;;;;5075473;28;20045;-90
2023/07/05 02:32:40;;;;;;;12.93;6.57;;;14.60;99.90;;;;;;5091552;28;20040;-90
2023/07/05 02:35:10;;;;;;;13.95;6.47;;;14.60;99.90;;;;;;5091360;28;20086;-91
2023/07/05 02:37:37;;;;;;;14.15;6.32;;;14.60;99.90;;;;;;5076024;28;20043;-90
2023/07/05 02:40:04;;;;;;;11.27;6.18;;;14.50;99.90;;;;;;5075133;28;20044;-90
2023/07/05 02:42:31;;;;;;;13.40;6.07;;;14.50;99.90;;;;;;5092078;28;20523;-90
2023/07/05 02:44:58;;;;;;;12.05;6.15;;;14.50;99.90;;;;;;5091482;28;20036;-89
2023/07/05 02:47:25;;;;;;;13.88;6.03;;;14.50;99.90;;;;;;5108005;28;20040;-90
2023/07/05 02:49:51;;;;;;;14.27;6.50;;;14.40;99.90;;;;;;5091349;28;20101;-90
2023/07/05 02:52:18;;;;;;;11.90;6.03;;;14.40;99.90;;;;;;5058482;28;20132;-92
2023/07/05 02:54:45;;;;;;;13.85;6.70;;;14.40;99.90;;;;;;5092122;28;20040;-92
2023/07/05 02:57:12;;;;;;;13.45;6.57;;;14.40;99.90;;;;;;5091564;28;20072;-91
2023/07/05 02:59:39;;;;;;;11.57;6.50;;;14.20;99.90;;;;;;5092644;28;20045;-91
2023/07/05 03:02:05;;;;;;;13.32;6.68;;;14.40;99.90;;;;;;5091242;28;20129;-91
2023/07/05 03:04:32;;;;;;;16.83;6.30;;;14.40;99.90;;;;;;5091483;28;20047;-90
2023/07/05 03:06:59;;;;;;;13.68;6.70;;;14.40;99.90;;;;;;5074466;28;20405;-91
2023/07/05 03:09:26;;;;;;;10.57;6.43;;;14.40;99.90;;;;;;5091522;28;20040;-90
2023/07/05 03:11:52;;;;;;;13.85;6.40;;;14.40;99.90;;;;;;5091030;28;20032;-91
2023/07/05 03:14:21;;;;;;;13.70;6.85;;;14.50;99.90;;;;;;5092357;28;20029;-93
2023/07/05 03:16:48;;;;;;;12.60;6.35;;;14.40;99.90;;;;;;5091654;28;20396;-93
2023/07/05 03:19:16;;;;;;;15.82;7.10;;;14.50;99.90;;;;;;5091850;28;20097;-91
2023/07/05 03:21:43;;;;;;;14.80;6.28;;;14.40;99.90;;;;;;5074837;28;20131;-91
2023/07/05 03:24:10;;;;;;;18.23;6.80;;;14.40;99.90;;;;;;5091251;28;20052;-91
2023/07/05 03:26:37;;;;;;;11.13;6.43;;;14.40;99.90;;;;;;5091344;28;20394;-93
2023/07/05 03:29:04;;;;;;;16.17;6.85;;;14.40;99.90;;;;;;5091433;28;20053;-94
2023/07/05 03:31:31;;;;;;;14.35;7.13;;;14.40;99.90;;;;;;5091922;28;20103;-95
2023/07/05 03:33:58;;;;;;;18.27;7.15;;;14.40;99.90;;;;;;5090857;28;20040;-89
2023/07/05 03:36:25;;;;;;;12.10;6.90;;;14.40;99.90;;;;;;5090863;28;20496;-91
2023/07/05 03:38:52;;;;;;;13.23;6.70;;;14.40;99.90;;;;;;5091227;28;20036;-92
2023/07/05 03:41:21;;;;;;;13.43;6.82;;;14.40;99.90;;;;;;5090874;28;20047;-90
2023/07/05 03:43:52;;;;;;;14.68;6.90;;;14.40;99.90;;;;;;5090328;28;20052;-90
2023/07/05 03:46:19;;;;;;;10.02;6.25;;;14.40;99.90;;;;;;5074711;28;20090;-91
2023/07/05 03:48:46;;;;;;;14.45;7.38;;;14.40;99.90;;;;;;5090680;28;20037;-90
2023/07/05 03:51:17;;;;;;;13.18;6.57;;;14.40;99.90;;;;;;5101913;28;20087;-89
2023/07/05 03:53:47;;;;;;;12.32;6.22;;;14.40;99.90;;;;;;5110210;28;20882;-90
2023/07/05 03:56:16;;;;;;;12.23;6.97;;;14.40;99.90;;;;;;5110715;28;20256;-89
2023/07/05 03:58:43;;;;;;;12.82;6.60;;;14.40;99.90;;;;;;5094472;28;20036;-90
2023/07/05 04:01:17;;;;;;;13.55;7.13;;;14.40;99.90;;;;;;5110756;28;20044;-89
2023/07/05 04:03:46;;;;;;;12.45;6.05;;;14.50;99.90;;;;;;5110974;28;20135;-90
2023/07/05 04:06:14;;;;;;;13.35;6.13;;;14.50;99.90;;;;;;5110352;28;20039;-90
2023/07/05 04:08:41;;;;;;;14.63;6.70;;;14.50;99.90;;;;;;5093890;28;20040;-90
2023/07/05 04:11:10;;;;;;;14.32;6.30;;;14.50;99.90;;;;;;5110345;28;20529;-90
2023/07/05 04:13:37;;;;;;;9.95;6.15;;;14.50;99.90;;;;;;5111240;28;20484;-90
2023/07/05 04:16:10;;;;;;;12.15;6.45;;;14.50;99.90;;;;;;5077365;28;20044;-89
2023/07/05 04:18:38;;;;;;;13.07;6.57;;;14.50;99.90;;;;;;5110654;28;20040;-89
2023/07/05 04:21:06;;;;;;;13.43;6.53;;;14.50;99.90;;;;;;5093623;28;20102;-89
2023/07/05 04:23:34;;;;;;;11.50;6.50;;;14.60;99.90;;;;;;5110720;28;20079;-88
2023/07/05 04:26:02;;;;;;;11.30;6.10;;;14.60;99.90;;;;;;5110821;28;20048;-89
2023/07/05 04:28:30;;;;;;;12.55;6.32;;;14.60;99.90;;;;;;5114167;28;20149;-89
2023/07/05 04:30:57;;;;;;;11.75;6.78;;;14.60;99.90;;;;;;5112350;28;20484;-89
2023/07/05 04:33:24;;;;;;;13.93;6.25;;;14.60;99.90;;;;;;5113229;28;20031;-91
2023/07/05 04:35:54;;;;;;;12.40;6.20;;;14.60;99.90;;;;;;5113732;28;20035;-91
2023/07/05 04:38:21;;;;;;;10.68;6.10;;;14.60;99.90;;;;;;5113755;28;20403;-92
2023/07/05 04:40:48;;;;;;;15.98;6.10;;;14.60;99.90;;;;;;5096721;28;20052;-90
2023/07/05 04:43:15;;;;;;;12.25;5.93;;;14.60;99.90;;;;;;5113893;28;20036;-90
2023/07/05 04:45:48;;;;;;;9.77;5.18;;;14.70;99.90;;;;;;5113867;28;20044;-90
2023/07/05 04:48:16;;;;;;;10.63;5.80;;;14.70;99.90;;;;;;5112775;28;20484;-88
2023/07/05 04:50:52;;;;;;;9.00;5.78;;;14.80;99.90;;;;;;5114057;28;20035;-89
2023/07/05 04:53:22;;;;;;;9.75;5.75;;;14.80;99.90;;;;;;5097668;28;20047;-89
2023/07/05 04:55:51;;;;;;;11.32;6.00;;;14.90;99.90;;;;;;5116632;28;20035;-88
2023/07/05 04:58:22;;;;;;;9.13;5.65;;;15.00;99.90;;;;;;5100415;28;20043;-88
2023/07/05 05:00:50;;;;;;;9.77;5.47;;;15.00;99.90;;;;;;5117128;28;20059;-87
2023/07/05 05:03:20;;;;;;;8.73;5.50;;;15.10;99.90;;;;;;5117057;28;20062;-87
2023/07/05 05:05:54;;;;;;;10.60;5.47;;;15.10;99.90;;;;;;5133274;28;20511;-88
2023/07/05 05:08:22;;;;;;;8.27;4.68;;;15.10;99.90;;;;;;5116323;28;20131;-87
2023/07/05 05:10:57;;;;;;;10.23;5.10;;;15.10;99.90;;;;;;5100646;28;20490;-88
2023/07/05 05:13:24;;;;;;;10.00;5.15;;;15.10;99.90;;;;;;5099883;28;20046;-87
2023/07/05 05:15:51;;;;;;;8.27;4.57;;;15.10;99.90;;;;;;5100102;28;20084;-87
2023/07/05 05:18:18;;;;;;;9.27;4.80;;;15.20;99.90;;;;;;5083417;28;20043;-88
2023/07/05 05:20:45;;;;;;;7.97;4.22;;;15.20;99.90;;;;;;5116517;28;20039;-88
2023/07/05 05:23:12;;;;;;;7.75;4.40;;;15.20;99.90;;;;;;5115396;28;20051;-86
2023/07/05 05:25:44;;;;;;;7.53;4.32;;;15.10;99.90;;;;;;5116396;28;20174;-87
2023/07/05 05:28:12;;;;;;;6.10;3.47;;;15.10;99.90;;;;;;5115385;28;20062;-87
2023/07/05 05:30:43;;;;;;;8.95;3.47;;;15.10;99.90;;;;;;5116357;28;20043;-89
2023/07/05 05:33:10;;;;;;;6.68;3.10;;;14.90;99.90;;;;;;5116499;28;20122;-87
2023/07/05 05:35:37;;;;;;;5.35;3.08;;;14.70;99.90;;;;;;5116730;28;20122;-87
2023/07/05 05:38:04;;;;;;;6.45;3.33;;;14.60;99.90;;;;;;5116318;28;20173;-89
2023/07/05 05:40:34;;;;;;;5.88;3.28;;;14.50;99.90;;;;;;5099306;28;20397;-88
2023/07/05 05:43:01;;;;;;;5.68;3.05;;;14.50;99.90;;;;;;5083170;28;20032;-88
2023/07/05 05:45:28;;;;;;;5.28;3.17;;;14.40;99.90;;;;;;5115773;28;20077;-88
2023/07/05 05:47:55;;;;;;;7.68;3.15;;;14.30;99.90;;;;;;5115817;28;20218;-88
2023/07/05 05:50:22;;;;;;;7.28;3.38;;;14.30;99.90;;;;;;5117317;28;20073;-88
2023/07/05 05:52:49;;;;;;;7.10;3.47;;;14.20;99.90;;;;;;5118564;28;20041;-87
2023/07/05 05:55:17;;;;;;;5.43;3.22;;;14.20;99.90;;;;;;5098870;28;20028;-88
2023/07/05 05:57:44;;;;;;;7.10;3.05;;;14.30;99.90;;;;;;5115749;28;20570;-88
2023/07/05 06:00:12;;;;;;;6.18;3.40;;;14.20;99.90;;;;;;5115796;28;20384;-88
2023/07/05 06:02:39;;;;;;;6.28;3.47;;;14.20;99.90;;;;;;5115744;28;20126;-88
2023/07/05 06:05:06;;;;;;;6.80;3.53;;;14.10;99.90;;;;;;5115318;28;20458;-86
2023/07/05 06:07:35;;;;;;;7.65;3.58;;;14.20;99.90;;;;;;5114802;28;20198;-90
2023/07/05 06:10:02;;;;;;;7.63;3.63;;;14.20;99.90;;;;;;5116052;28;20122;-90
2023/07/05 06:12:29;;;;;;;7.03;3.65;;;14.30;99.90;;;;;;5116549;28;20538;-92
2023/07/05 06:14:56;;;;;;;6.82;3.40;;;14.30;99.90;;;;;;5116360;28;20038;-90
2023/07/05 06:17:23;;;;;;;5.70;2.90;;;14.40;99.90;;;;;;5115840;28;20032;-92
2023/07/05 06:19:50;;;;;;;5.88;3.33;;;14.50;99.90;;;;;;5133164;28;20742;-90
2023/07/05 06:22:16;;;;;;;5.93;3.20;;;14.60;99.90;;;;;;5116050;28;20043;-90
2023/07/05 06:24:43;;;;;;;10.80;3.13;;;14.70;99.90;;;;;;5132454;28;20051;-89
2023/07/05 06:27:11;;;;;;;6.63;2.95;;;14.80;99.90;;;;;;5115797;28;20178;-91
2023/07/05 06:29:38;;;;;;;8.25;3.05;;;14.70;99.90;;;;;;5098988;28;20044;-91
2023/07/05 06:32:05;;;;;;;6.30;3.10;;;14.80;99.90;;;;;;5102196;28;20040;-91
2023/07/05 06:34:32;;;;;;;9.63;2.83;;;14.80;99.90;;;;;;5051628;28;20079;-93
2023/07/05 06:36:59;;;;;;;5.57;2.67;;;14.80;99.90;;;;;;5095850;28;20081;-90
2023/07/05 06:39:25;;;;;;;6.32;2.42;;;14.80;99.90;;;;;;5111956;28;20044;-93
2023/07/05 06:41:52;;;;;;;6.30;2.63;;;14.80;99.90;;;;;;5078590;28;20032;-92
2023/07/05 06:44:19;;;;;;;5.55;2.70;;;14.80;99.90;;;;;;5095310;28;20048;-93
2023/07/05 06:46:46;;;;;;;4.32;2.33;;;14.80;99.90;;;;;;5095704;28;20090;-92
2023/07/05 06:49:13;;;;;;;5.47;2.45;;;14.90;99.90;;;;;;5078617;28;20040;-91
2023/07/05 06:51:39;;;;;;;6.57;2.50;;;15.00;99.90;;;;;;5078759;28;20050;-91
2023/07/05 06:54:06;;;;;;;7.07;2.38;;;15.10;99.90;;;;;;5095400;28;20032;-91
2023/07/05 06:56:35;;;;;;;5.43;2.90;;;15.20;99.90;;;;;;5062805;28;20152;-89
2023/07/05 06:59:02;;;;;;;7.15;2.80;;;15.30;99.90;;;;;;5095771;28;20139;-91
2023/07/05 07:01:28;;;;;;;7.75;3.00;;;15.50;99.90;;;;;;5094777;28;20087;-91
2023/07/05 07:03:55;;;;;;;6.07;2.83;;;15.50;99.90;;;;;;5093017;28;20033;-92
2023/07/05 07:06:22;;;;;;;4.60;2.53;;;15.70;99.90;;;;;;5059041;28;20052;-93
2023/07/05 07:08:49;;;;;;;5.47;2.75;;;15.90;99.90;;;;;;5077025;28;20090;-93
2023/07/05 07:11:15;;;;;;;8.20;2.90;;;16.00;99.90;;;;;;5067750;28;20040;-87
2023/07/05 07:13:42;;;;;;;5.88;2.75;;;16.10;99.90;;;;;;5075389;28;20039;-92
2023/07/05 07:16:13;;;;;;;6.45;2.90;;;16.10;99.90;;;;;;5078216;28;20445;-93
2023/07/05 07:18:48;;;;;;;4.60;2.70;;;16.10;99.90;;;;;;5094619;28;20078;-92
2023/07/05 07:21:17;;;;;;;5.78;2.58;;;16.10;99.90;;;;;;5080695;28;20484;-93
2023/07/05 07:23:48;;;;;;;7.50;2.90;;;16.20;99.90;;;;;;5082301;28;20062;-93
2023/07/05 07:26:19;;;;;;;5.10;2.70;;;16.30;99.90;;;;;;5082739;28;20051;-92
2023/07/05 07:28:49;;;;;;;7.18;2.70;;;16.30;99.90;;;;;;5100824;28;20056;-95
2023/07/05 07:31:26;;;;;;;5.22;2.42;;;16.30;99.90;;;;;;5111936;28;20466;-93
2023/07/05 07:33:53;;;;;;;4.68;2.63;;;16.40;99.90;;;;;;5111059;28;20722;-94
2023/07/05 07:36:25;;;;;;;4.57;2.42;;;16.50;99.90;;;;;;5111804;28;20032;-94
2023/07/05 07:38:55;;;;;;;6.82;2.30;;;16.60;99.90;;;;;;5112041;28;20048;-93
2023/07/05 07:41:25;;;;;;;5.82;2.60;;;16.50;99.90;;;;;;5128931;28;20411;-95
2023/07/05 07:43:55;;;;;;;4.75;2.15;;;16.30;99.90;;;;;;5112261;28;20036;-95
2023/07/05 07:46:24;;;;;;;7.95;2.50;;;16.20;99.90;;;;;;5111517;28;20031;-95
2023/07/05 07:48:53;;;;;;;5.55;2.28;;;16.10;99.90;;;;;;5111127;28;20040;-93
2023/07/05 07:51:23;;;;;;;5.35;2.30;;;16.00;99.90;;;;;;5107012;28;20099;-94
2023/07/05 07:53:51;;;;;;;5.18;2.17;;;16.00;99.90;;;;;;5089297;28;20036;-94
2023/07/05 07:56:20;;;;;;;9.65;2.78;;;15.70;99.90;;;;;;5085722;28;20101;-94
2023/07/05 07:58:49;;;;;;;5.65;2.90;;;15.40;99.90;;;;;;5106705;28;20123;-93
2023/07/05 08:01:25;;;;;;;6.00;2.70;;;15.20;99.90;;;;;;5086837;28;20040;-94
2023/07/05 08:03:52;;;;;;;5.05;2.60;;;15.20;99.90;;;;;;5111646;28;20043;-96
2023/07/05 08:06:20;;;;;;;8.38;2.50;;;15.30;99.90;;;;;;5078779;28;20373;-93
2023/07/05 08:08:47;;;;;;;5.07;2.40;;;15.30;99.90;;;;;;5102925;28;20063;-94
2023/07/05 08:11:14;;;;;;;5.18;2.25;;;15.30;99.90;;;;;;5089124;28;20059;-96
2023/07/05 08:13:40;;;;;;;5.80;2.80;;;15.20;99.90;;;;;;5094916;28;20044;-96
2023/07/05 08:16:10;;;;;;;5.68;2.10;;;15.30;99.90;;;;;;5093602;28;20076;-95
2023/07/05 08:18:37;;;;;;;5.63;1.90;;;14.90;99.90;;;;;;5095487;28;20047;-95
2023/07/05 08:21:04;;;;;;;8.77;2.42;;;14.60;99.90;;;;;;5114339;28;20047;-95
2023/07/05 08:23:30;;;;;;;4.93;2.00;;;14.40;99.90;;;;;;5094708;28;20040;-96
2023/07/05 08:26:00;;;;;;;5.07;1.65;;;14.20;99.90;;;;;;5112506;28;20047;-95
2023/07/05 08:28:28;;;;;;;4.45;1.40;;;13.90;99.90;;;;;;5100090;28;20052;-96
2023/07/05 08:30:56;;;;;;;3.10;1.27;;;14.00;99.90;;;;;;5098314;28;20097;-92
2023/07/05 08:33:29;;;;;;;2.97;1.10;;;13.80;99.90;;;;;;5114586;28;20097;-92
2023/07/05 08:36:42;;;;;;;2.60;1.10;;;13.70;99.90;;;;;;5131438;28;20127;-92
2023/07/05 08:39:10;;;;;;;4.05;1.10;;;13.80;99.90;;;;;;5126151;28;20047;-92
2023/07/05 08:41:43;;;;;;;2.20;1.08;;;13.80;99.90;;;;;;5081131;28;20374;-91
2023/07/05 08:44:21;;;;;;;1.75;0.80;;;13.90;99.90;;;;;;5115158;28;20044;-92
2023/07/05 08:47:00;;;;;;;3.60;0.93;;;13.90;99.90;;;;;;5114459;28;20042;-95
2023/07/05 08:50:06;;;;;;;2.38;1.00;;;13.80;99.90;;;;;;5116646;28;20040;-95
2023/07/05 08:52:47;;;;;;;1.98;0.80;;;13.70;99.90;;;;;;5117018;28;20039;-95
2023/07/05 08:55:17;;;;;;;2.45;1.17;;;13.60;99.90;;;;;;5134718;28;20516;-95
2023/07/05 08:57:52;;;;;;;1.23;0.70;;;13.50;99.90;;;;;;5118181;28;20035;-95
2023/07/05 09:00:39;;;;;;;2.03;0.70;;;13.30;99.90;;;;;;5116398;28;20043;-96
2023/07/05 09:03:11;;;;;;;2.10;1.13;;;13.20;99.90;;;;;;5115755;28;20375;-94
2023/07/05 09:05:51;;;;;;;1.98;0.70;;;13.20;99.90;;;;;;5115594;28;20411;-95
2023/07/05 09:08:22;;;;;;;2.63;0.90;;;13.10;99.90;;;;;;5115508;28;20040;-93
2023/07/05 09:11:05;;;;;;;2.53;1.00;;;13.20;99.90;;;;;;5116708;28;20033;-94
2023/07/05 09:13:39;;;;;;;2.17;0.98;;;13.10;99.90;;;;;;5102787;28;20036;-92
2023/07/05 09:16:58;;;;;;;3.13;1.10;;;13.10;99.90;;;;;;5114501;28;20040;-95
2023/07/05 09:19:33;;;;;;;1.70;0.82;;;13.10;99.90;;;;;;5089633;28;20123;-94
2023/07/05 09:22:06;;;;;;;6.32;1.05;;;13.00;99.90;;;;;;5113715;28;20404;-94
2023/07/05 09:24:39;;;;;;;3.13;1.10;;;13.00;99.90;;;;;;5131481;28;20087;-94
2023/07/05 09:27:24;;;;;;;4.43;1.00;;;13.00;99.90;;;;;;5118131;28;20091;-95
2023/07/05 09:30:06;;;;;;;0.98;0.70;;;13.00;99.90;;;;;;5133803;28;20081;-95
2023/07/05 09:32:40;;;;;;;2.47;1.00;;;12.90;99.90;;;;;;5117773;28;20036;-95
2023/07/05 09:35:18;;;;;;;2.38;1.00;;;12.80;99.90;;;;;;5106933;28;20036;-92
2023/07/05 09:38:07;;;;;;;3.65;1.00;;;12.80;99.90;;;;;;5106441;28;20040;-94
2023/07/05 09:41:01;;;;;;;1.58;0.80;;;12.70;99.90;;;;;;5112704;28;20036;-92
2023/07/05 09:43:31;;;;;;;5.63;1.13;;;12.80;99.90;;;;;;5113268;28;20093;-93
2023/07/05 09:46:05;;;;;;;1.75;0.73;;;12.80;99.90;;;;;;5129307;28;20123;-93
2023/07/05 09:48:41;;;;;;;3.90;1.30;;;12.80;99.90;;;;;;5112952;28;20500;-93
2023/07/05 09:51:09;;;;;;;1.83;0.90;;;12.80;99.90;;;;;;5132123;28;20040;-96
2023/07/05 09:54:00;;;;;;;7.38;1.77;;;12.80;99.90;;;;;;5114210;28;20473;-94
2023/07/05 09:56:28;;;;;;;2.45;0.90;;;12.80;99.90;;;;;;5109190;28;20131;-95
2023/07/05 09:59:16;;;;;;;2.45;0.90;;;12.80;99.90;;;;;;5113404;28;20140;-93
2023/07/05 10:01:47;;;;;;;1.98;1.00;;;12.80;99.90;;;;;;5112676;28;20055;-93
2023/07/05 10:04:15;;;;;;;4.00;1.10;;;12.80;99.90;;;;;;5096272;28;20132;-91
2023/07/05 10:06:46;;;;;;;5.97;1.20;;;12.80;99.90;;;;;;5103821;28;20048;-94
2023/07/05 10:09:19;;;;;;;3.33;1.10;;;12.80;99.90;;;;;;5130803;28;20040;-94
2023/07/05 10:11:48;;;;;;;7.10;1.30;;;12.20;99.90;;;;;;5113003;28;20498;-95
2023/07/05 10:14:18;;;;;;;5.90;1.17;;;12.90;99.90;;;;;;5093171;28;20048;-92
2023/07/05 10:16:51;;;;;;;5.40;1.30;;;12.70;99.90;;;;;;5108110;28;20097;-92
2023/07/05 10:19:27;;;;;;;4.47;1.10;;;13.00;99.90;;;;;;5092654;28;20567;-93
2023/07/05 10:22:06;;;;;;;4.90;1.50;;;13.10;99.90;;;;;;5092039;28;20044;-92
2023/07/05 10:24:43;;;;;;;4.40;1.15;;;13.20;99.90;;;;;;5102427;28;20036;-91
2023/07/05 10:27:33;;;;;;;3.97;1.23;;;13.40;99.90;;;;;;5114740;28;20056;-92
2023/07/05 10:30:20;;;;;;;2.40;1.08;;;13.60;99.90;;;;;;5132460;28;20375;-94
2023/07/05 10:33:00;;;;;;;3.60;1.10;;;13.80;99.90;;;;;;5131860;28;20774;-94
2023/07/05 10:35:28;;;;;;;6.00;1.10;;;13.90;99.90;;;;;;5132414;28;20089;-93
2023/07/05 10:37:57;;;;;;;4.40;1.15;;;14.00;99.90;;;;;;5131657;28;20043;-91
2023/07/05 10:40:24;;;;;;;3.53;1.30;;;14.10;99.90;;;;;;5132246;28;20078;-90
2023/07/05 10:43:00;;;;;;;4.18;1.15;;;14.10;99.90;;;;;;5131986;28;20564;-91
2023/07/05 10:45:34;;;;;;;7.07;1.58;;;14.20;99.90;;;;;;5132658;28;20043;-92
2023/07/05 10:48:01;;;;;;;4.93;1.38;;;14.20;99.90;;;;;;5132508;28;20075;-95
2023/07/05 10:50:34;;;;;;;5.30;1.13;;;14.30;99.90;;;;;;5132587;28;20043;-94
2023/07/05 10:53:06;;;;;;;6.57;1.40;;;14.30;99.90;;;;;;5131775;28;20032;-92
2023/07/05 10:56:09;;;;;;;6.90;1.45;;;14.50;99.90;;;;;;5132800;28;20032;-93
2023/07/05 10:58:54;;;;;;;5.85;1.15;;;14.50;99.90;;;;;;5128307;28;20105;-94
2023/07/05 11:01:29;;;;;;;6.10;1.20;;;14.60;99.90;;;;;;5149209;28;20044;-93
2023/07/05 11:04:11;;;;;;;4.97;1.50;;;14.70;99.90;;;;;;5132638;28;20036;-93
2023/07/05 11:06:40;;;;;;;8.25;1.67;;;14.80;99.90;;;;;;5133394;28;20043;-92
2023/07/05 11:09:10;;;;;;;3.63;1.35;;;14.90;99.90;;;;;;5114611;28;20487;-92
2023/07/05 11:11:47;;;;;;;6.93;2.58;;;15.00;99.90;;;;;;5115424;28;20069;-94
2023/07/05 11:14:15;;;;;;;11.77;3.40;;;15.00;99.90;;;;;;5132338;28;20118;-94
2023/07/05 11:16:45;;;;;;;8.13;2.17;;;15.10;99.90;;;;;;5132280;28;20073;-95
2023/07/05 11:19:15;;;;;;;8.30;1.85;;;15.10;99.90;;;;;;5116924;28;20068;-94
2023/07/05 11:21:48;;;;;;;10.80;2.00;;;15.00;99.90;;;;;;5123606;28;20070;-94
2023/07/05 11:24:30;;;;;;;7.90;1.70;;;15.00;99.90;;;;;;5111519;28;20067;-93
2023/07/05 11:26:58;;;;;;;6.28;1.38;;;15.10;99.90;;;;;;5111882;28;20056;-94
2023/07/05 11:29:28;;;;;;;4.63;1.50;;;15.30;99.90;;;;;;5095462;28;20047;-93
2023/07/05 11:31:57;;;;;;;5.88;1.63;;;15.20;99.90;;;;;;5111182;28;20036;-92
2023/07/05 11:34:24;;;;;;;5.47;1.70;;;15.40;99.90;;;;;;5110587;28;20055;-93
2023/07/05 11:37:03;;;;;;;8.18;1.60;;;15.30;99.90;;;;;;5111169;28;20496;-94
2023/07/05 11:39:38;;;;;;;5.28;1.40;;;15.30;99.90;;;;;;5111233;28;20032;-93
2023/07/05 11:42:17;;;;;;;6.32;1.70;;;15.40;99.90;;;;;;5111981;28;20044;-92
2023/07/05 11:44:45;;;;;;;5.90;1.42;;;15.60;99.90;;;;;;5111196;28;20043;-92
2023/07/05 11:47:23;;;;;;;7.63;1.85;;;15.70;99.90;;;;;;5111077;28;20054;-92
2023/07/05 11:50:09;;;;;;;8.02;1.58;;;15.70;99.90;;;;;;5115935;28;20040;-96
2023/07/05 11:52:50;;;;;;;5.18;1.33;;;15.80;99.90;;;;;;5117448;28;20042;-96
2023/07/05 11:55:24;;;;;;;6.97;1.40;;;15.90;99.90;;;;;;5120745;28;20450;-96
2023/07/05 11:58:00;;;;;;;4.22;1.10;;;16.00;99.90;;;;;;5092635;28;20045;-92
2023/07/05 12:00:26;;;;;;;2.65;1.00;;;16.10;99.90;;;;;;5090307;28;20056;-93
2023/07/05 12:03:01;;;;;;;4.55;1.23;;;16.10;99.90;;;;;;5090479;28;20511;-92
2023/07/05 12:05:36;;;;;;;4.18;0.93;;;16.00;99.90;;;;;;5090089;28;20044;-93
2023/07/05 12:08:14;;;;;;;3.78;1.10;;;15.80;99.90;;;;;;5073284;28;20037;-91
2023/07/05 12:11:00;;;;;;;2.85;1.00;;;15.70;99.90;;;;;;5090592;28;20037;-90
2023/07/05 12:13:35;;;;;;;5.80;1.10;;;15.30;99.90;;;;;;5090338;28;20519;-92
2023/07/05 12:16:06;;;;;;;4.45;1.05;;;15.20;99.90;;;;;;5090007;28;20041;-91
2023/07/05 12:18:33;;;;;;;7.47;1.10;;;15.00;99.90;;;;;;5107426;28;20109;-92
2023/07/05 12:21:05;;;;;;;3.35;0.98;;;15.00;99.90;;;;;;5090006;28;20044;-91
2023/07/05 12:23:34;;;;;;;3.97;1.20;;;15.00;99.90;;;;;;5096949;28;20507;-91
2023/07/05 12:26:05;;;;;;;2.35;0.82;;;15.10;99.90;;;;;;5126955;28;20513;-93
2023/07/05 12:28:33;;;;;;;3.17;1.08;;;15.10;99.90;;;;;;5110142;28;20063;-92
2023/07/05 12:31:10;;;;;;;6.03;0.90;;;15.20;99.90;;;;;;5109783;28;20040;-92
2023/07/05 12:33:38;;;;;;;4.85;1.10;;;15.10;99.90;;;;;;5138397;28;20407;-91
2023/07/05 12:36:10;;;;;;;3.05;0.88;;;14.80;99.90;;;;;;5093842;28;20043;-94
2023/07/05 12:38:40;;;;;;;4.75;1.17;;;14.50;99.90;;;;;;5074777;28;20050;-92
2023/07/05 12:41:19;;;;;;;2.03;0.90;;;14.20;99.90;;;;;;5105860;28;20044;-94
2023/07/05 12:43:47;;;;;;;3.08;0.95;;;14.00;99.90;;;;;;5110738;28;20456;-92
2023/07/05 12:46:15;;;;;;;3.50;1.00;;;13.80;99.90;;;;;;5110509;28;20035;-93
2023/07/05 12:48:42;;;;;;;4.85;1.20;;;13.60;99.90;;;;;;5110289;28;20624;-94
2023/07/05 12:51:20;;;;;;;3.80;1.10;;;13.60;99.90;;;;;;5109652;28;20064;-94
2023/07/05 12:53:48;;;;;;;2.35;1.10;;;13.30;99.90;;;;;;5110125;28;20111;-92
2023/07/05 12:56:18;;;;;;;3.75;1.33;;;13.20;99.90;;;;;;5090012;28;20044;-95
2023/07/05 12:58:57;;;;;;;4.63;1.10;;;13.10;99.90;;;;;;5110884;28;20055;-93
2023/07/05 13:01:32;;;;;;;3.88;1.05;;;13.00;99.90;;;;;;5110619;28;20048;-93
2023/07/05 13:04:00;;;;;;;6.20;1.27;;;12.90;99.90;;;;;;5110493;28;20040;-93